Terminal Aerodrome Forecast
Issued by NWS

Current Version | Previous Version | Text Only | Print | Product List | Glossary Off
Versions: 1 2 3 4 5 6 7 8 9 10 11 12 13 14 15 16 17

000
FTUS41 KPBZ 271700
TAFHLG
TAF
KHLG 271720Z 2718/2818 26005KT P6SM VCSH BKN040
     FM272200 30008KT P6SM BKN035
     FM280400 36005KT P6SM SCT050=

USA.gov is the U.S. government's official web portal to all federal, state and local government web resources and services.